Latest Weather Observations for Campania

IDT60901

Issued at 4:31 pm EDT Wednesday 21 February 2024 (issued every 10 minutes, with the page automatically refreshed every 10 minutes)

About weather observations | Map of Hobart area stations | Latest observations for Hobart area | Other Formats
Station Details ID: 094212 Name: CAMPANIA (KINCORA) Lat: -42.69 Lon: 147.43 Height: 45.0 m
Data from the previous 72 hours. | See also: Recent months at Campania
Date/Time
EDT
Temp
°C
App
Temp
°C
Dew
Point
°C
Rel
Hum
%
Delta-T
°C
Wind Press
QNH
hPa
Press
MSL
hPa
Rain since
9am
mm
Dir  Spd
km/h
Gust
km/h
Spd
kts
Gust
kts
21/04:30pm 30.8 26.2 13.6 35 10.3 N 30 41 16 22 - - 0.0
21/04:00pm 31.1 26.4 14.3 36 10.2 N 32 46 17 25 - - 0.0
21/03:30pm 30.7 25.9 13.9 36 10.1 N 32 50 17 27 - - 0.0
21/03:28pm 30.3 25.2 13.1 34 10.2 N 32 50 17 27 - - 0.0
21/03:00pm 31.2 26.9 14.4 36 10.2 NNE 30 44 16 24 - - 0.0
21/02:30pm 30.4 26.6 13.7 36 10.0 N 26 44 14 24 - - 0.0
21/02:00pm 29.9 26.1 13.6 36 9.8 N 26 35 14 19 - - 0.0
21/01:30pm 29.1 25.6 13.3 37 9.4 N 24 35 13 19 - - 0.0
21/01:00pm 27.7 24.9 14.3 43 8.0 N 22 37 12 20 - - 0.0
21/12:30pm 27.3 24.4 15.0 47 7.5 N 24 32 13 17 - - 0.0
21/12:00pm 27.5 25.0 15.2 47 7.5 NNE 22 32 12 17 - - 0.0
21/11:30am 26.3 24.3 15.4 51 6.6 N 20 37 11 20 - - 0.0
21/11:00am 24.0 23.0 15.5 59 5.1 N 15 22 8 12 - - 0.0
21/10:30am 23.4 23.5 15.5 61 4.8 NE 9 13 5 7 - - 0.0
21/10:00am 22.3 22.4 15.4 65 4.1 N 9 11 5 6 - - 0.0
21/09:30am 20.2 20.4 14.3 69 3.4 S 6 7 3 4 - - 0.0
21/09:00am 18.7 19.9 13.8 73 2.8 CALM 0 0 0 0 - - 0.0
21/08:30am 17.8 18.8 13.3 75 2.5 CALM 0 0 0 0 - - 0.0
21/08:00am 17.4 17.6 13.1 76 2.4 ENE 4 6 2 3 - - 0.0
21/07:30am 16.2 17.1 12.9 81 1.8 CALM 0 0 0 0 - - 0.0
21/07:00am 15.4 15.4 12.5 83 1.6 NE 4 6 2 3 - - 0.0
21/06:30am 15.5 16.3 12.6 83 1.6 CALM 0 0 0 0 - - 0.0
21/06:00am 14.9 15.3 12.4 85 1.4 WNW 2 6 1 3 - - 0.0
21/05:30am 14.3 13.8 12.2 87 1.1 W 6 7 3 4 - - 0.0
21/05:00am 13.2 12.6 11.6 90 0.9 NNE 6 7 3 4 - - 0.0
21/04:30am 13.2 13.8 11.9 92 0.7 CALM 0 0 0 0 - - 0.0
21/04:00am 12.5 12.7 10.7 89 0.9 CALM 0 0 0 0 - - 0.0
21/03:30am 13.2 13.7 11.6 90 0.9 CALM 0 0 0 0 - - 0.0
21/03:00am 13.2 13.6 11.3 88 1.0 CALM 0 0 0 0 - - 0.0
21/02:30am 13.0 13.4 11.1 88 1.0 CALM 0 0 0 0 - - 0.0
21/02:00am 13.6 14.0 11.1 85 1.3 CALM 0 0 0 0 - - 0.0
21/01:30am 14.0 14.4 11.3 84 1.4 CALM 0 0 0 0 - - 0.0
21/01:00am 13.7 13.0 11.4 86 1.2 NW 6 7 3 4 - - 0.0
21/12:30am 13.8 13.2 11.7 87 1.1 NW 6 7 3 4 - - 0.0
21/12:00am 14.1 14.5 11.3 83 1.5 CALM 0 0 0 0 - - 0.0
 
Date/Time
EDT
Temp
°C
App
Temp
°C
Dew
Point
°C
Rel
Hum
%
Delta-T
°C
Wind Press
QNH
hPa
Press
MSL
hPa
Rain since
9am
mm
Dir  Spd
km/h
Gust
km/h
Spd
kts
Gust
kts
20/11:30pm 14.9 15.4 11.7 81 1.7 CALM 0 0 0 0 - - 0.0
20/11:00pm 16.7 15.6 12.0 74 2.6 NE 9 11 5 6 - - 0.0
20/10:30pm 17.1 16.0 12.0 72 2.8 NNE 9 13 5 7 - - 0.0
20/10:00pm 17.7 16.6 11.9 69 3.2 NNE 9 13 5 7 - - 0.0
20/09:30pm 18.3 16.0 11.8 66 3.6 NNE 15 20 8 11 - - 0.0
20/09:00pm 18.2 17.0 11.7 66 3.6 NNE 9 13 5 7 - - 0.0
20/08:30pm 18.7 17.8 11.5 63 4.0 NE 7 13 4 7 - - 0.0
20/08:00pm 19.7 17.7 11.5 59 4.5 NE 13 19 7 10 - - 0.0
20/07:30pm 20.9 18.5 11.5 55 5.2 NE 15 20 8 11 - - 0.0
20/07:00pm 22.0 19.2 11.4 51 5.9 NE 17 24 9 13 - - 0.0
20/06:30pm 22.3 19.1 11.4 50 6.1 ENE 19 28 10 15 - - 0.0
20/06:00pm 23.1 20.7 11.5 48 6.5 ENE 15 20 8 11 - - 0.0
20/05:30pm 23.3 19.9 11.4 47 6.7 NE 20 28 11 15 - - 0.0
20/05:00pm 23.4 20.9 11.1 46 6.9 NE 15 24 8 13 - - 0.0
20/04:30pm 23.7 21.1 12.0 47 6.6 ENE 17 24 9 13 - - 0.0
20/04:00pm 23.9 21.6 11.9 47 6.8 ESE 15 20 8 11 - - 0.0
20/03:30pm 24.3 21.5 11.3 44 7.3 ENE 17 24 9 13 - - 0.0
20/03:00pm 24.0 21.3 11.7 46 7.0 E 17 24 9 13 - - 0.0
20/02:30pm 23.9 20.8 11.6 46 6.9 E 19 26 10 14 - - 0.0
20/02:00pm 23.9 22.0 11.9 47 6.8 E 13 20 7 11 - - 0.0
20/01:30pm 24.0 21.4 12.0 47 6.8 ENE 17 24 9 13 - - 0.0
20/01:00pm 23.1 21.6 11.8 49 6.4 NE 11 17 6 9 - - 0.0
20/12:30pm 23.0 21.4 11.4 48 6.5 NNE 11 19 6 10 - - 0.0
20/12:00pm 23.2 20.7 10.9 46 6.8 NE 15 22 8 12 - - 0.0
20/11:30am 22.6 21.3 11.4 49 6.3 NW 9 13 5 7 - - 0.0
20/11:00am 21.2 20.3 11.5 54 5.4 NE 7 13 4 7 - - 0.0
20/10:30am 20.7 19.4 11.3 55 5.2 NNE 9 15 5 8 - - 0.0
20/10:00am 19.0 17.9 10.8 59 4.4 ENE 7 13 4 7 - - 0.0
20/09:30am 19.0 17.5 10.6 58 4.5 NE 9 15 5 8 - - 0.0
20/09:00am 17.6 16.6 10.9 65 3.6 NW 7 9 4 5 - - 0.0
20/08:30am 16.7 16.2 10.8 68 3.2 NNE 4 9 2 5 - - 0.0
20/08:00am 15.7 15.2 10.9 73 2.6 SW 4 7 2 4 - - 0.0
20/07:30am 14.9 14.0 10.7 76 2.2 SE 6 7 3 4 - - 0.0
20/07:00am 14.4 14.2 10.6 78 2.0 SSE 2 7 1 4 - - 0.0
20/06:30am 13.6 12.6 10.4 81 1.7 SW 6 9 3 5 - - 0.0
20/06:00am 14.1 14.2 10.1 77 2.1 CALM 0 0 0 0 - - 0.0
20/05:30am 14.8 14.9 10.2 74 2.4 CALM 0 0 0 0 - - 0.0
20/05:00am 15.1 15.2 10.3 73 2.5 CALM 0 0 0 0 - - 0.0
20/04:30am 15.4 15.6 10.4 72 2.6 CALM 0 0 0 0 - - 0.0
20/04:00am 15.5 15.6 10.3 71 2.7 CALM 0 0 0 0 - - 0.0
20/03:30am 15.6 15.6 9.9 69 3.0 CALM 0 0 0 0 - - 0.0
20/03:00am 15.6 15.6 9.9 69 3.0 CALM 0 0 0 0 - - 0.0
20/02:30am 15.6 14.9 10.2 70 2.8 NE 4 7 2 4 - - 0.0
20/02:00am 15.6 14.5 9.9 69 3.0 NNE 6 9 3 5 - - 0.0
20/01:30am 15.7 15.3 9.8 68 3.1 NNE 2 7 1 4 - - 0.0
20/01:00am 15.6 14.2 9.7 68 3.1 NNE 7 11 4 6 - - 0.0
20/12:30am 15.6 13.0 9.5 67 3.2 NE 13 19 7 10 - - 0.0
20/12:00am 15.6 13.0 9.5 67 3.2 NNE 13 17 7 9 - - 0.0
 
Date/Time
EDT
Temp
°C
App
Temp
°C
Dew
Point
°C
Rel
Hum
%
Delta-T
°C
Wind Press
QNH
hPa
Press
MSL
hPa
Rain since
9am
mm
Dir  Spd
km/h
Gust
km/h
Spd
kts
Gust
kts
19/11:30pm 15.6 13.8 9.3 66 3.3 NNE 9 15 5 8 - - 0.0
19/11:00pm 15.6 13.0 9.5 67 3.2 NE 13 17 7 9 - - 0.0
19/10:30pm 15.7 13.6 9.6 67 3.2 NE 11 17 6 9 - - 0.0
19/10:00pm 15.8 13.2 9.5 66 3.3 NE 13 19 7 10 - - 0.0
19/09:30pm 15.8 12.4 9.2 65 3.4 NE 17 22 9 12 - - 0.0
19/09:00pm 16.1 13.5 9.3 64 3.5 ENE 13 20 7 11 - - 0.0
19/08:30pm 16.4 13.4 9.3 63 3.7 E 15 22 8 12 - - 0.0
19/08:00pm 16.3 12.5 9.0 62 3.8 SSE 19 26 10 14 - - 0.0
19/07:30pm 17.0 12.6 8.9 59 4.2 SSE 22 28 12 15 - - 0.0
19/07:00pm 17.5 13.1 8.9 57 4.5 SSE 22 32 12 17 - - 0.0
19/06:30pm 18.0 13.6 8.8 55 4.8 SSE 22 30 12 16 - - 0.0
19/06:00pm 18.6 14.5 8.8 53 5.1 SSE 20 26 11 14 - - 0.0
19/05:30pm 19.4 15.5 9.3 52 5.3 SSE 20 28 11 15 - - 0.0
19/05:00pm 18.9 14.8 8.8 52 5.3 SSE 20 32 11 17 - - 0.0
19/04:30pm 19.6 15.3 9.2 51 5.5 S 22 32 12 17 - - 0.0
19/04:00pm 19.5 14.8 9.4 52 5.4 S 24 35 13 19 - - 0.0
19/03:30pm 20.5 16.8 10.3 52 5.5 S 20 32 11 17 - - 0.0
19/03:00pm 19.8 15.7 10.0 53 5.3 SSE 22 32 12 17 - - 0.0
19/02:30pm 19.4 14.9 10.1 55 5.0 SSE 24 33 13 18 - - 0.0
19/02:00pm 19.6 15.6 10.3 55 5.0 SSE 22 33 12 18 - - 0.0
19/01:30pm 18.6 14.5 10.2 58 4.5 SSE 22 30 12 16 - - 0.0
19/01:00pm 19.2 15.4 11.0 59 4.5 SSE 22 32 12 17 - - 0.0
19/12:30pm 19.1 14.9 11.2 60 4.3 SSE 24 32 13 17 - - 0.0
19/12:00pm 18.1 15.0 11.7 66 3.5 SSE 19 28 10 15 - - 0.0
19/11:30am 18.3 16.2 12.3 68 3.3 SSE 15 20 8 11 - - 0.0
19/11:00am 17.7 15.1 11.9 69 3.2 SSE 17 20 9 11 - - 0.0
19/10:30am 17.7 16.2 11.9 69 3.2 SE 11 19 6 10 - - 0.0
19/10:00am 17.8 15.7 12.3 70 3.0 SSE 15 19 8 10 - - 0.0
19/09:30am 17.9 16.4 10.5 62 4.0 S 9 15 5 8 - - 0.0
19/09:00am 17.7 15.8 10.6 63 3.8 WNW 11 15 6 8 - - 0.0
19/08:30am 17.1 14.5 10.7 66 3.4 WNW 15 20 8 11 - - 0.0
19/08:00am 16.7 13.7 10.5 67 3.3 W 17 22 9 12 - - 0.0
19/07:30am 16.4 13.7 10.5 68 3.1 W 15 20 8 11 - - 0.0
19/07:00am 15.5 15.4 10.7 73 2.5 N 2 13 1 7 - - 0.0
19/06:30am 14.8 14.1 10.0 73 2.5 NE 4 7 2 4 - - 0.0
19/06:00am 14.7 13.6 10.1 74 2.4 NW 6 9 3 5 - - 0.0
19/05:30am 14.6 13.3 10.0 74 2.4 NNE 7 9 4 5 - - 0.0
19/05:00am 15.3 13.8 10.7 74 2.4 NW 9 15 5 8 - - 0.0
19/04:30am 13.5 12.1 9.0 74 2.3 WNW 6 11 3 6 - - 0.0
19/04:00am 13.9 12.7 9.7 76 2.2 ESE 6 15 3 8 - - 0.0
19/03:30am 14.5 12.6 10.5 77 2.1 NNE 11 15 6 8 - - 0.0
19/03:00am 15.1 13.4 9.7 70 2.8 WNW 9 13 5 7 - - 0.0
19/02:30am 14.6 12.5 9.6 72 2.6 N 11 13 6 7 - - 0.0
19/02:00am 16.0 13.9 9.7 66 3.3 NNW 11 19 6 10 - - 0.0
19/01:30am 16.0 13.5 9.7 66 3.3 N 13 17 7 9 - - 0.0
19/01:00am 16.1 13.5 9.3 64 3.5 N 13 19 7 10 - - 0.0
19/12:30am 16.6 15.2 9.5 63 3.7 N 7 13 4 7 - - 0.0
19/12:00am 16.9 14.3 9.3 61 4.0 NNW 13 19 7 10 - - 0.0
 
Date/Time
EDT
Temp
°C
App
Temp
°C
Dew
Point
°C
Rel
Hum
%
Delta-T
°C
Wind Press
QNH
hPa
Press
MSL
hPa
Rain since
9am
mm
Dir  Spd
km/h
Gust
km/h
Spd
kts
Gust
kts
18/11:30pm 17.0 14.3 8.9 59 4.2 N 13 19 7 10 - - 0.0
18/11:00pm 17.8 14.8 9.4 58 4.4 WNW 15 24 8 13 - - 0.0
18/10:30pm 17.7 14.7 9.1 57 4.5 W 15 22 8 12 - - 0.0
18/10:00pm 18.1 15.1 9.2 56 4.7 WNW 15 26 8 14 - - 0.0
18/09:30pm 18.5 15.1 9.3 55 4.8 W 17 28 9 15 - - 0.0
18/09:00pm 18.7 13.6 9.2 54 5.0 WSW 26 37 14 20 - - 0.0
18/08:30pm 19.3 14.1 8.9 51 5.5 WSW 26 37 14 20 - - 0.0
18/08:00pm 20.4 16.3 8.7 47 6.2 SW 20 35 11 19 - - 0.0
18/07:30pm 21.6 17.5 8.5 43 6.9 SW 20 33 11 18 - - 0.0
18/07:00pm 22.8 16.8 8.5 40 7.6 WSW 30 43 16 23 - - 0.0
18/06:30pm 24.1 17.4 8.1 36 8.5 WSW 33 44 18 24 - - 0.0
18/06:07pm 24.8 18.9 7.4 33 9.2 W 28 46 15 25 - - 0.0
18/06:00pm 25.2 19.6 7.3 32 9.4 W 26 39 14 21 - - 0.0
18/05:30pm 25.3 18.9 7.0 31 9.6 W 30 43 16 23 - - 0.0
18/05:00pm 25.9 19.5 7.0 30 10.0 W 30 43 16 23 - - 0.0

Latest Capital City Observations: Canberra | Sydney | Melbourne | Brisbane | Adelaide | Perth | Hobart | Darwin

Other formats

Comma delimited format used in spreadsheet applications
http://www.bom.gov.au/fwo/IDT60901/IDT60901.95972.axf

JavaScript Object Notation format (JSON) in row-major order
http://www.bom.gov.au/fwo/IDT60901/IDT60901.95972.json

Data quality

Most of these data are generated automatically and are frequently updated. Quality checks on data are not normally performed. It is possible for incorrect values to appear. Refer to information at About Latest Weather Observations and please check the disclaimer before using these data.